Time;durP1;ratioP1;P1;durP2;ratioP2;P2;SDS_P1;SDS_P2;PMS_P1;PMS_P2;Temp;Humidity;BMP_temperature;BMP_pressure;BME280_temperature;BME280_humidity;BME280_pressure;Samples;Min_cycle;Max_cycle;Signal;HPM_P1;HPM_P2
2022/09/14 00:00:59;;;;;;;12.95;2.10;;;;;;;;;;4915828;28;20528;-69
2022/09/14 00:03:25;;;;;;;16.00;1.98;;;;;;;;;;4916026;28;20028;-71
2022/09/14 00:05:51;;;;;;;11.68;2.63;;;;;;;;;;4915494;28;20116;-71
2022/09/14 00:08:17;;;;;;;14.05;2.20;;;;;;;;;;4898613;28;20067;-72
2022/09/14 00:10:44;;;;;;;16.08;2.28;;;;;;;;;;4915552;28;20032;-71
2022/09/14 00:13:11;;;;;;;16.33;2.30;;;;;;;;;;4915463;28;20324;-71
2022/09/14 00:15:38;;;;;;;15.77;2.28;;;;;;;;;;4898218;28;20075;-71
2022/09/14 00:18:05;;;;;;;16.10;2.38;;;;;;;;;;4915520;28;20067;-70
2022/09/14 00:20:31;;;;;;;13.95;1.77;;;;;;;;;;4898254;28;20085;-70
2022/09/14 00:22:57;;;;;;;12.20;1.98;;;;;;;;;;4915072;28;20032;-70
2022/09/14 00:25:25;;;;;;;10.38;1.67;;;;;;;;;;4917282;28;20437;-70
2022/09/14 00:27:51;;;;;;;19.77;2.35;;;;;;;;;;4915017;29;20021;-70
2022/09/14 00:30:17;;;;;;;12.85;2.38;;;;;;;;;;4915114;28;20377;-71
2022/09/14 00:32:43;;;;;;;11.73;2.50;;;;;;;;;;4914940;28;20033;-71
2022/09/14 00:35:09;;;;;;;12.60;1.92;;;;;;;;;;4915008;28;20086;-70
2022/09/14 00:37:35;;;;;;;11.63;1.83;;;;;;;;;;4914747;28;20063;-71
2022/09/14 00:40:02;;;;;;;11.25;2.10;;;;;;;;;;4915037;28;20404;-71
2022/09/14 00:42:28;;;;;;;18.88;2.22;;;;;;;;;;4914730;28;20675;-71
2022/09/14 00:44:58;;;;;;;13.77;2.30;;;;;;;;;;4914927;28;20102;-71
2022/09/14 00:47:24;;;;;;;12.10;2.13;;;;;;;;;;4896933;28;20021;-71
2022/09/14 00:49:51;;;;;;;17.42;2.25;;;;;;;;;;4914842;29;20044;-71
2022/09/14 00:52:21;;;;;;;14.63;2.03;;;;;;;;;;4931809;23;20058;-75
2022/09/14 00:54:52;;;;;;;14.27;2.30;;;;;;;;;;4934427;29;20107;-75
2022/09/14 00:57:19;;;;;;;10.90;1.65;;;;;;;;;;4934329;29;20059;-75
2022/09/14 00:59:46;;;;;;;18.30;2.92;;;;;;;;;;4934661;29;20035;-75
2022/09/14 01:02:13;;;;;;;19.52;2.17;;;;;;;;;;4934549;29;20028;-75
2022/09/14 01:04:39;;;;;;;10.63;2.33;;;;;;;;;;4934239;29;20020;-74
2022/09/14 01:07:15;;;;;;;16.55;2.88;;;;;;;;;;4932375;29;20030;-75
2022/09/14 01:09:49;;;;;;;14.65;2.45;;;;;;;;;;4939662;29;20020;-75
2022/09/14 01:12:20;;;;;;;9.98;2.38;;;;;;;;;;4952095;29;20429;-75
2022/09/14 01:15:02;;;;;;;14.60;2.35;;;;;;;;;;4937667;29;20065;-74
2022/09/14 01:17:42;;;;;;;19.63;2.85;;;;;;;;;;4933792;29;20031;-74
2022/09/14 01:20:11;;;;;;;9.98;1.85;;;;;;;;;;4934172;29;20031;-74
2022/09/14 01:22:43;;;;;;;11.10;2.05;;;;;;;;;;4933787;29;20032;-74
2022/09/14 01:25:14;;;;;;;13.65;2.22;;;;;;;;;;4933755;29;20059;-75
2022/09/14 01:27:42;;;;;;;10.35;1.83;;;;;;;;;;4931342;29;20050;-75
2022/09/14 01:30:19;;;;;;;8.90;1.83;;;;;;;;;;4933615;29;20493;-75
2022/09/14 01:32:58;;;;;;;14.02;2.05;;;;;;;;;;4932313;29;20543;-74
2022/09/14 01:35:28;;;;;;;16.83;2.10;;;;;;;;;;4933522;29;20085;-74
2022/09/14 01:38:02;;;;;;;8.40;2.10;;;;;;;;;;4934143;29;20048;-74
2022/09/14 01:40:45;;;;;;;14.88;2.70;;;;;;;;;;4933441;29;20040;-75
2022/09/14 01:43:12;;;;;;;18.83;2.33;;;;;;;;;;4933758;29;20028;-74
2022/09/14 01:45:40;;;;;;;17.00;2.22;;;;;;;;;;4933281;29;20058;-73
2022/09/14 01:48:08;;;;;;;14.68;2.30;;;;;;;;;;4933854;29;20585;-74
2022/09/14 01:50:37;;;;;;;25.67;3.60;;;;;;;;;;4933779;29;20027;-75
2022/09/14 01:53:13;;;;;;;20.50;2.80;;;;;;;;;;4934047;29;20044;-74
2022/09/14 01:55:42;;;;;;;18.30;3.15;;;;;;;;;;4934210;29;20046;-74
2022/09/14 01:58:21;;;;;;;17.13;2.38;;;;;;;;;;4944168;29;20054;-75
2022/09/14 02:00:48;;;;;;;14.30;2.10;;;;;;;;;;4945901;29;20024;-75
2022/09/14 02:03:19;;;;;;;18.30;2.67;;;;;;;;;;4941123;29;20178;-75
2022/09/14 02:05:50;;;;;;;20.50;2.70;;;;;;;;;;4933012;29;20034;-74
2022/09/14 02:08:16;;;;;;;19.75;2.95;;;;;;;;;;4933506;29;20473;-74
2022/09/14 02:10:42;;;;;;;10.02;2.13;;;;;;;;;;4931761;29;20082;-75
2022/09/14 02:13:09;;;;;;;16.55;2.67;;;;;;;;;;4933002;29;20032;-74
2022/09/14 02:15:35;;;;;;;16.95;2.47;;;;;;;;;;4933931;29;20039;-73
2022/09/14 02:18:02;;;;;;;15.90;2.22;;;;;;;;;;4933088;29;20028;-74
2022/09/14 02:20:36;;;;;;;13.20;2.40;;;;;;;;;;4933477;29;20058;-75
2022/09/14 02:23:02;;;;;;;19.20;3.28;;;;;;;;;;4933177;29;20099;-75
2022/09/14 02:25:29;;;;;;;18.95;2.53;;;;;;;;;;4932893;29;20028;-73
2022/09/14 02:27:55;;;;;;;20.27;2.90;;;;;;;;;;4932784;29;20031;-74
2022/09/14 02:30:21;;;;;;;16.00;2.40;;;;;;;;;;4933285;29;20028;-74
2022/09/14 02:33:07;;;;;;;11.02;2.13;;;;;;;;;;4933169;29;20106;-73
2022/09/14 02:35:41;;;;;;;13.93;2.30;;;;;;;;;;4932238;28;20055;-75
2022/09/14 02:38:13;;;;;;;12.07;1.95;;;;;;;;;;4933615;29;20078;-75
2022/09/14 02:40:42;;;;;;;12.35;2.17;;;;;;;;;;4932768;29;20476;-75
2022/09/14 02:43:26;;;;;;;17.73;2.63;;;;;;;;;;4932645;29;20483;-73
2022/09/14 02:45:55;;;;;;;11.60;2.10;;;;;;;;;;4932521;29;20028;-75
2022/09/14 02:48:24;;;;;;;11.75;2.22;;;;;;;;;;4933117;29;20024;-74
2022/09/14 02:50:55;;;;;;;19.63;2.78;;;;;;;;;;4932734;29;20030;-74
2022/09/14 02:53:24;;;;;;;14.65;2.33;;;;;;;;;;4931810;29;20087;-75
2022/09/14 02:55:56;;;;;;;14.68;2.22;;;;;;;;;;4934645;29;20476;-75
2022/09/14 02:58:22;;;;;;;18.20;2.60;;;;;;;;;;4953596;29;20032;-76
2022/09/14 03:00:49;;;;;;;15.50;2.53;;;;;;;;;;4948621;29;20035;-75
2022/09/14 03:03:16;;;;;;;17.52;3.25;;;;;;;;;;4955637;28;20050;-77
2022/09/14 03:05:43;;;;;;;16.75;3.25;;;;;;;;;;4952349;29;20039;-77
2022/09/14 03:08:09;;;;;;;22.48;2.60;;;;;;;;;;4953790;29;20030;-76
2022/09/14 03:10:36;;;;;;;22.02;3.17;;;;;;;;;;4961618;28;20016;-75
2022/09/14 03:13:02;;;;;;;14.13;2.50;;;;;;;;;;4962390;28;20030;-76
2022/09/14 03:15:29;;;;;;;16.63;2.83;;;;;;;;;;4962985;28;20045;-75
2022/09/14 03:17:55;;;;;;;15.52;2.35;;;;;;;;;;4946465;28;20043;-75
2022/09/14 03:20:23;;;;;;;20.73;3.40;;;;;;;;;;4963166;29;20028;-75
2022/09/14 03:22:49;;;;;;;18.00;2.13;;;;;;;;;;5025951;28;20105;-75
2022/09/14 03:25:15;;;;;;;14.98;2.40;;;;;;;;;;5043476;28;20018;-76
2022/09/14 03:27:41;;;;;;;19.63;2.63;;;;;;;;;;5025961;28;20140;-76
2022/09/14 03:30:08;;;;;;;19.10;2.85;;;;;;;;;;5038617;28;20053;-76
2022/09/14 03:32:34;;;;;;;17.02;2.80;;;;;;;;;;5027499;28;20030;-76
2022/09/14 03:35:00;;;;;;;12.30;2.33;;;;;;;;;;5019539;28;20390;-76
2022/09/14 03:37:26;;;;;;;14.95;2.65;;;;;;;;;;5018486;28;20026;-76
2022/09/14 03:39:52;;;;;;;17.35;3.13;;;;;;;;;;5019830;28;20036;-77
2022/09/14 03:42:18;;;;;;;12.07;2.65;;;;;;;;;;5019218;28;20034;-76
2022/09/14 03:44:44;;;;;;;14.90;2.40;;;;;;;;;;5019076;28;20057;-75
2022/09/14 03:47:10;;;;;;;16.00;2.47;;;;;;;;;;5018731;28;20443;-75
2022/09/14 03:49:36;;;;;;;17.45;2.67;;;;;;;;;;5020595;28;20034;-75
2022/09/14 03:52:02;;;;;;;21.38;3.05;;;;;;;;;;5018870;28;20112;-76
2022/09/14 03:54:28;;;;;;;13.00;2.47;;;;;;;;;;5018697;28;20487;-76
2022/09/14 03:56:54;;;;;;;13.35;2.72;;;;;;;;;;5019060;28;20110;-75
2022/09/14 03:59:20;;;;;;;16.85;2.70;;;;;;;;;;5019133;28;20057;-76
2022/09/14 04:01:47;;;;;;;21.85;3.15;;;;;;;;;;5018664;28;20042;-76
2022/09/14 04:04:13;;;;;;;13.70;2.45;;;;;;;;;;5019011;28;20026;-76
2022/09/14 04:06:39;;;;;;;11.50;2.38;;;;;;;;;;5018674;28;20025;-76
2022/09/14 04:09:05;;;;;;;15.73;2.40;;;;;;;;;;5018753;28;20030;-76
2022/09/14 04:11:32;;;;;;;14.90;2.65;;;;;;;;;;5019498;28;20028;-76
2022/09/14 04:14:03;;;;;;;17.55;3.17;;;;;;;;;;5021743;28;20359;-76
2022/09/14 04:16:29;;;;;;;18.23;2.63;;;;;;;;;;5020917;28;20078;-75
2022/09/14 04:18:55;;;;;;;19.15;3.00;;;;;;;;;;5019621;28;20036;-76
2022/09/14 04:21:22;;;;;;;19.20;2.88;;;;;;;;;;5016073;28;20030;-75
2022/09/14 04:23:51;;;;;;;13.25;2.58;;;;;;;;;;5016457;28;20553;-76
2022/09/14 04:26:19;;;;;;;16.15;2.08;;;;;;;;;;5017051;28;20064;-76
2022/09/14 04:28:45;;;;;;;12.15;2.40;;;;;;;;;;5016037;28;20022;-75
2022/09/14 04:31:11;;;;;;;13.68;2.38;;;;;;;;;;4997496;28;20076;-75
2022/09/14 04:33:38;;;;;;;16.88;2.65;;;;;;;;;;5016360;28;20472;-75
2022/09/14 04:36:08;;;;;;;12.45;2.83;;;;;;;;;;5017025;28;20545;-76
2022/09/14 04:38:35;;;;;;;16.20;2.47;;;;;;;;;;5017508;28;20038;-76
2022/09/14 04:41:03;;;;;;;13.32;2.72;;;;;;;;;;5015293;28;20041;-75
2022/09/14 04:43:30;;;;;;;21.40;3.10;;;;;;;;;;5015631;28;20253;-74
2022/09/14 04:46:01;;;;;;;13.85;2.92;;;;;;;;;;5015559;28;20045;-74
2022/09/14 04:48:27;;;;;;;16.65;3.17;;;;;;;;;;5016209;28;20108;-75
2022/09/14 04:50:53;;;;;;;13.32;2.20;;;;;;;;;;4998315;28;20080;-73
2022/09/14 04:53:19;;;;;;;17.58;2.78;;;;;;;;;;5033715;28;20034;-74
2022/09/14 04:55:45;;;;;;;13.70;2.50;;;;;;;;;;5026839;28;20104;-74
2022/09/14 04:58:11;;;;;;;16.95;2.70;;;;;;;;;;4998410;28;20029;-74
2022/09/14 05:00:37;;;;;;;19.95;3.92;;;;;;;;;;5015702;28;20038;-74
2022/09/14 05:03:04;;;;;;;13.60;3.20;;;;;;;;;;5014795;28;20033;-75
2022/09/14 05:05:30;;;;;;;14.52;2.70;;;;;;;;;;5015090;28;20022;-75
2022/09/14 05:07:56;;;;;;;16.55;3.03;;;;;;;;;;4998870;28;20414;-74
2022/09/14 05:10:22;;;;;;;13.82;2.45;;;;;;;;;;5015759;28;20026;-75
2022/09/14 05:12:48;;;;;;;14.90;2.58;;;;;;;;;;5015228;28;20034;-73
2022/09/14 05:15:14;;;;;;;18.05;4.95;;;;;;;;;;5015060;28;20026;-73
2022/09/14 05:17:40;;;;;;;20.63;3.55;;;;;;;;;;4998558;28;20053;-75
2022/09/14 05:20:06;;;;;;;11.65;2.55;;;;;;;;;;5017846;28;20034;-74
2022/09/14 05:22:32;;;;;;;15.05;2.75;;;;;;;;;;5018655;28;20026;-74
2022/09/14 05:24:58;;;;;;;13.00;2.65;;;;;;;;;;5017649;28;20531;-74
2022/09/14 05:27:25;;;;;;;16.00;2.78;;;;;;;;;;5018756;28;20113;-74
2022/09/14 05:29:51;;;;;;;13.27;2.70;;;;;;;;;;5019203;28;20046;-76
2022/09/14 05:32:17;;;;;;;24.95;3.72;;;;;;;;;;5000029;28;20100;-76
2022/09/14 05:34:43;;;;;;;18.38;2.65;;;;;;;;;;5001810;28;20030;-76
2022/09/14 05:37:11;;;;;;;17.15;2.83;;;;;;;;;;5016952;28;20467;-73
2022/09/14 05:39:37;;;;;;;16.80;2.50;;;;;;;;;;5015303;28;20028;-74
2022/09/14 05:42:03;;;;;;;14.50;2.47;;;;;;;;;;5013935;28;20120;-73
2022/09/14 05:44:29;;;;;;;11.23;2.20;;;;;;;;;;5014116;28;20463;-73
2022/09/14 05:46:55;;;;;;;20.40;3.10;;;;;;;;;;5013930;28;20057;-73
2022/09/14 05:49:21;;;;;;;14.30;2.30;;;;;;;;;;5015230;28;20088;-75
2022/09/14 05:51:47;;;;;;;19.73;2.88;;;;;;;;;;5013742;28;20038;-74
2022/09/14 05:54:13;;;;;;;12.77;2.85;;;;;;;;;;5013516;28;20014;-75
2022/09/14 05:56:38;;;;;;;13.27;2.90;;;;;;;;;;5013256;28;20479;-75
2022/09/14 05:59:04;;;;;;;12.65;2.72;;;;;;;;;;5013295;28;20467;-75
2022/09/14 06:01:31;;;;;;;17.15;3.00;;;;;;;;;;5013678;28;20026;-74
2022/09/14 06:03:59;;;;;;;17.40;3.15;;;;;;;;;;5013445;28;20025;-73
2022/09/14 06:06:25;;;;;;;13.98;2.60;;;;;;;;;;5013111;28;20018;-76
2022/09/14 06:08:52;;;;;;;11.77;2.65;;;;;;;;;;5015764;28;20087;-75
2022/09/14 06:11:23;;;;;;;11.93;2.55;;;;;;;;;;5022419;28;20029;-78
2022/09/14 06:13:49;;;;;;;18.05;3.53;;;;;;;;;;4976692;28;20043;-75
2022/09/14 06:16:16;;;;;;;16.67;3.00;;;;;;;;;;4937582;29;20028;-76
2022/09/14 06:18:43;;;;;;;14.13;2.80;;;;;;;;;;4936210;29;20023;-78
2022/09/14 06:21:10;;;;;;;19.20;3.20;;;;;;;;;;4934928;28;20119;-75
2022/09/14 06:23:36;;;;;;;20.73;2.85;;;;;;;;;;4935897;29;20028;-79
2022/09/14 06:26:03;;;;;;;17.70;2.70;;;;;;;;;;4933879;29;20039;-75
2022/09/14 06:28:29;;;;;;;20.27;3.05;;;;;;;;;;4933801;28;20107;-75
2022/09/14 06:30:56;;;;;;;10.40;2.20;;;;;;;;;;4935019;28;20024;-76
2022/09/14 06:33:22;;;;;;;14.32;2.40;;;;;;;;;;4933783;29;20043;-75
2022/09/14 06:35:57;;;;;;;15.98;2.70;;;;;;;;;;4934081;29;20108;-76
2022/09/14 06:38:24;;;;;;;21.15;2.50;;;;;;;;;;4934936;28;20095;-75
2022/09/14 06:40:51;;;;;;;11.05;2.20;;;;;;;;;;4934818;29;20035;-75
2022/09/14 06:43:17;;;;;;;17.25;2.47;;;;;;;;;;4934591;29;20477;-76
2022/09/14 06:45:43;;;;;;;13.50;2.78;;;;;;;;;;4933882;29;20034;-75
2022/09/14 06:48:09;;;;;;;13.90;2.33;;;;;;;;;;4933999;29;20032;-75
2022/09/14 06:50:35;;;;;;;19.05;3.55;;;;;;;;;;4934542;29;20358;-76
2022/09/14 06:53:01;;;;;;;10.85;2.60;;;;;;;;;;4934846;28;20101;-74
2022/09/14 06:55:28;;;;;;;16.48;2.33;;;;;;;;;;4938427;29;20110;-75
2022/09/14 06:57:54;;;;;;;15.07;2.47;;;;;;;;;;4940053;28;20362;-74
2022/09/14 07:00:20;;;;;;;17.30;2.92;;;;;;;;;;4942157;28;20028;-75
2022/09/14 07:02:46;;;;;;;13.25;2.67;;;;;;;;;;4948698;29;20032;-74
2022/09/14 07:05:14;;;;;;;14.85;2.60;;;;;;;;;;4949242;29;20028;-75
2022/09/14 07:07:40;;;;;;;14.18;2.28;;;;;;;;;;4948720;29;20024;-74
2022/09/14 07:10:06;;;;;;;15.48;2.65;;;;;;;;;;4950042;29;20035;-76
2022/09/14 07:12:32;;;;;;;17.67;3.08;;;;;;;;;;4946725;29;20115;-76
2022/09/14 07:14:58;;;;;;;16.85;2.63;;;;;;;;;;4947188;29;20035;-72
2022/09/14 07:17:24;;;;;;;16.52;3.05;;;;;;;;;;4945716;28;20370;-73
2022/09/14 07:19:50;;;;;;;19.35;2.88;;;;;;;;;;4927082;28;20492;-75
2022/09/14 07:22:16;;;;;;;15.20;2.45;;;;;;;;;;4934129;29;20520;-76
2022/09/14 07:24:42;;;;;;;15.75;2.72;;;;;;;;;;4935744;29;20039;-75
2022/09/14 07:27:08;;;;;;;14.55;2.80;;;;;;;;;;4934825;29;20044;-76
2022/09/14 07:29:34;;;;;;;13.63;2.42;;;;;;;;;;4934777;29;20028;-75
2022/09/14 07:32:00;;;;;;;14.73;2.38;;;;;;;;;;4932883;29;20051;-75
2022/09/14 07:34:26;;;;;;;13.82;2.22;;;;;;;;;;4933253;28;20050;-74
2022/09/14 07:36:52;;;;;;;13.98;2.38;;;;;;;;;;4936624;29;20032;-75
2022/09/14 07:39:18;;;;;;;15.18;2.67;;;;;;;;;;4948268;28;20070;-76
2022/09/14 07:41:44;;;;;;;14.50;3.03;;;;;;;;;;4947245;29;20039;-76
2022/09/14 07:44:13;;;;;;;14.23;2.78;;;;;;;;;;4942121;29;20036;-75
2022/09/14 07:46:40;;;;;;;13.45;2.38;;;;;;;;;;4937040;28;20036;-74
2022/09/14 07:49:07;;;;;;;19.27;2.72;;;;;;;;;;4934973;28;20011;-75
2022/09/14 07:51:33;;;;;;;21.02;2.63;;;;;;;;;;4947925;28;20198;-75
2022/09/14 07:54:00;;;;;;;13.07;2.58;;;;;;;;;;4935978;29;20095;-74
2022/09/14 07:56:26;;;;;;;15.48;2.78;;;;;;;;;;4936395;29;20162;-74
2022/09/14 07:58:54;;;;;;;19.25;3.05;;;;;;;;;;4936211;29;20071;-74
2022/09/14 08:01:21;;;;;;;17.08;2.42;;;;;;;;;;4920952;28;20038;-75
2022/09/14 08:03:47;;;;;;;15.13;2.47;;;;;;;;;;4938146;29;20122;-75
2022/09/14 08:06:18;;;;;;;12.65;2.25;;;;;;;;;;4935191;29;20550;-75
2022/09/14 08:08:46;;;;;;;9.57;1.85;;;;;;;;;;4935458;28;20054;-76
2022/09/14 08:11:14;;;;;;;8.48;1.67;;;;;;;;;;4935999;28;20050;-76
2022/09/14 08:13:44;;;;;;;16.58;2.15;;;;;;;;;;4936204;29;20464;-76
2022/09/14 08:16:11;;;;;;;11.95;2.00;;;;;;;;;;4936199;29;20059;-77
2022/09/14 08:18:38;;;;;;;12.02;2.13;;;;;;;;;;4918653;28;20107;-76
2022/09/14 08:21:04;;;;;;;19.63;2.40;;;;;;;;;;4919417;28;20019;-74
2022/09/14 08:23:30;;;;;;;10.40;1.95;;;;;;;;;;4918584;28;20101;-76
2022/09/14 08:26:01;;;;;;;13.02;2.40;;;;;;;;;;4934722;29;20016;-77
2022/09/14 08:28:27;;;;;;;13.50;2.60;;;;;;;;;;4935653;29;20062;-77
2022/09/14 08:30:53;;;;;;;12.55;3.33;;;;;;;;;;4935184;29;20027;-76
2022/09/14 08:33:19;;;;;;;14.57;2.05;;;;;;;;;;4935417;29;20400;-75
2022/09/14 08:35:45;;;;;;;9.68;1.98;;;;;;;;;;4935182;29;20031;-76
2022/09/14 08:38:11;;;;;;;11.82;1.98;;;;;;;;;;4935441;29;20107;-77
2022/09/14 08:40:44;;;;;;;9.77;1.77;;;;;;;;;;4935476;29;20393;-75
2022/09/14 08:43:11;;;;;;;16.25;2.10;;;;;;;;;;4935093;29;20476;-77
2022/09/14 08:45:38;;;;;;;14.50;2.35;;;;;;;;;;4920375;28;20028;-78
2022/09/14 08:48:05;;;;;;;8.65;1.60;;;;;;;;;;4936828;29;20030;-80
2022/09/14 08:50:31;;;;;;;12.45;2.15;;;;;;;;;;4935600;28;20102;-74
2022/09/14 08:52:59;;;;;;;17.85;2.42;;;;;;;;;;4935530;29;20378;-75
2022/09/14 08:55:40;;;;;;;12.30;1.88;;;;;;;;;;4935736;29;20042;-76
2022/09/14 08:58:09;;;;;;;11.98;1.63;;;;;;;;;;4935611;28;20103;-76
2022/09/14 09:00:42;;;;;;;21.42;5.50;;;;;;;;;;4936699;29;20070;-77
2022/09/14 09:03:20;;;;;;;11.82;2.33;;;;;;;;;;4919305;28;20396;-74
2022/09/14 09:05:55;;;;;;;12.98;2.05;;;;;;;;;;4943561;29;20049;-73
2022/09/14 09:08:40;;;;;;;13.50;2.13;;;;;;;;;;4956473;28;20031;-76
2022/09/14 09:11:09;;;;;;;8.75;1.90;;;;;;;;;;4956848;28;20050;-77
2022/09/14 09:13:37;;;;;;;17.17;2.60;;;;;;;;;;4939955;28;20071;-77
2022/09/14 09:16:05;;;;;;;13.10;1.73;;;;;;;;;;4957328;28;20016;-77
2022/09/14 09:18:43;;;;;;;12.07;1.88;;;;;;;;;;4952287;28;20036;-76
2022/09/14 09:21:28;;;;;;;13.23;2.15;;;;;;;;;;4937202;29;20059;-75
2022/09/14 09:24:15;;;;;;;12.40;2.05;;;;;;;;;;4936186;29;20036;-76
2022/09/14 09:26:41;;;;;;;13.63;2.15;;;;;;;;;;4934682;29;20059;-76
2022/09/14 09:29:08;;;;;;;9.98;2.00;;;;;;;;;;4935012;29;20085;-76
2022/09/14 09:31:34;;;;;;;16.00;2.25;;;;;;;;;;4939024;29;20436;-76
2022/09/14 09:34:01;;;;;;;19.60;2.45;;;;;;;;;;4927313;28;20032;-76
2022/09/14 09:36:32;;;;;;;10.05;2.10;;;;;;;;;;5009856;28;20026;-75
2022/09/14 09:38:58;;;;;;;8.77;1.90;;;;;;;;;;5029433;28;20033;-75
2022/09/14 09:41:27;;;;;;;13.13;2.10;;;;;;;;;;5020663;28;20030;-75
2022/09/14 09:44:08;;;;;;;18.65;2.95;;;;;;;;;;4995728;28;20372;-75
2022/09/14 09:46:34;;;;;;;16.00;2.30;;;;;;;;;;5014266;28;20021;-75
2022/09/14 09:49:20;;;;;;;15.38;2.17;;;;;;;;;;5014534;28;20471;-76
2022/09/14 09:51:47;;;;;;;14.15;2.20;;;;;;;;;;5014286;28;20026;-74
2022/09/14 09:54:13;;;;;;;11.27;1.88;;;;;;;;;;4997065;28;20060;-77
2022/09/14 09:56:40;;;;;;;10.52;2.05;;;;;;;;;;5012433;28;20119;-75
2022/09/14 09:59:27;;;;;;;9.82;2.10;;;;;;;;;;5013113;28;20029;-75
2022/09/14 10:01:54;;;;;;;9.73;2.40;;;;;;;;;;5013623;28;20083;-77
2022/09/14 10:04:22;;;;;;;13.27;2.05;;;;;;;;;;5013737;28;20033;-74
2022/09/14 10:06:50;;;;;;;13.30;2.13;;;;;;;;;;4997149;28;20105;-74
2022/09/14 10:09:19;;;;;;;14.90;1.90;;;;;;;;;;5020848;28;20049;-77
2022/09/14 10:11:46;;;;;;;12.23;2.00;;;;;;;;;;5000493;28;20102;-74
2022/09/14 10:14:23;;;;;;;12.48;1.85;;;;;;;;;;5020058;28;20025;-75
2022/09/14 10:16:49;;;;;;;13.35;2.40;;;;;;;;;;5022788;28;20026;-78
2022/09/14 10:19:21;;;;;;;16.42;2.20;;;;;;;;;;5022272;28;20030;-79
2022/09/14 10:22:16;;;;;;;15.77;2.60;;;;;;;;;;5002543;28;20049;-74
2022/09/14 10:24:42;;;;;;;;;;;;;;;;;;5025473;28;20034;-76
2022/09/14 10:27:30;;;;;;;16.55;2.35;;;;;;;;;;5020137;28;19928;-74
2022/09/14 10:29:56;;;;;;;12.32;2.15;;;;;;;;;;4995989;28;20033;-74
2022/09/14 10:32:24;;;;;;;11.55;2.00;;;;;;;;;;5013463;28;20034;-76
2022/09/14 10:34:50;;;;;;;14.82;2.80;;;;;;;;;;5013555;28;20028;-75
2022/09/14 10:37:21;;;;;;;19.77;1.85;;;;;;;;;;5016078;28;20030;-77
2022/09/14 10:39:56;;;;;;;13.77;2.38;;;;;;;;;;5014102;28;20103;-74
2022/09/14 10:43:01;;;;;;;25.48;3.05;;;;;;;;;;5012964;28;20022;-77
2022/09/14 10:45:34;;;;;;;13.30;2.78;;;;;;;;;;4917019;29;20034;-74
2022/09/14 10:48:02;;;;;;;11.30;3.63;;;;;;;;;;4917587;29;20035;-76
2022/09/14 10:50:41;;;;;;;12.52;2.05;;;;;;;;;;4976932;28;20041;-75
2022/09/14 10:53:33;;;;;;;12.60;2.17;;;;;;;;;;4995324;28;20048;-73
2022/09/14 10:56:01;;;;;;;11.15;2.65;;;;;;;;;;5009649;28;20090;-76
2022/09/14 10:58:37;;;;;;;13.95;2.58;;;;;;;;;;5013442;28;20040;-77
2022/09/14 11:01:06;;;;;;;10.35;2.15;;;;;;;;;;5013567;28;20038;-78
2022/09/14 11:03:51;;;;;;;11.32;2.53;;;;;;;;;;5012678;28;20030;-78
2022/09/14 11:06:17;;;;;;;;;;;;;;;;;;5013453;28;20391;-77
2022/09/14 11:08:43;;;;;;;17.77;2.88;;;;;;;;;;4996142;28;19910;-78
2022/09/14 11:11:21;;;;;;;13.80;2.65;;;;;;;;;;5013165;28;20105;-77
2022/09/14 11:13:52;;;;;;;10.43;2.50;;;;;;;;;;5013372;28;20034;-76
2022/09/14 11:16:30;;;;;;;10.50;2.00;;;;;;;;;;5012803;28;20034;-75
2022/09/14 11:19:23;;;;;;;16.35;2.45;;;;;;;;;;5012871;28;20029;-75
2022/09/14 11:21:52;;;;;;;15.52;2.65;;;;;;;;;;5013199;28;20089;-75
2022/09/14 11:24:39;;;;;;;13.27;2.20;;;;;;;;;;5012882;28;20042;-76
2022/09/14 11:27:10;;;;;;;17.02;2.90;;;;;;;;;;4995114;28;20025;-75
2022/09/14 11:29:46;;;;;;;11.95;2.25;;;;;;;;;;5013406;28;20032;-77
2022/09/14 11:32:14;;;;;;;12.15;1.92;;;;;;;;;;5018751;28;20041;-76
2022/09/14 11:34:43;;;;;;;13.77;1.98;;;;;;;;;;5020781;28;20026;-76
2022/09/14 11:37:17;;;;;;;10.52;1.90;;;;;;;;;;5028178;28;20041;-77
2022/09/14 11:39:46;;;;;;;12.88;1.90;;;;;;;;;;5035265;28;20055;-74
2022/09/14 11:42:15;;;;;;;19.92;7.85;;;;;;;;;;5037850;28;20088;-75
2022/09/14 11:44:46;;;;;;;24.38;7.63;;;;;;;;;;5035978;28;20077;-74
2022/09/14 11:47:19;;;;;;;17.73;3.88;;;;;;;;;;5037961;28;20052;-75
2022/09/14 11:50:03;;;;;;;16.88;2.20;;;;;;;;;;5021663;28;20010;-75
2022/09/14 11:52:31;;;;;;;12.68;1.90;;;;;;;;;;5022626;28;20068;-77
2022/09/14 11:54:58;;;;;;;14.10;1.88;;;;;;;;;;5039824;28;20101;-75
2022/09/14 11:57:32;;;;;;;11.02;1.95;;;;;;;;;;5023072;28;20031;-76
2022/09/14 11:59:59;;;;;;;14.95;1.88;;;;;;;;;;4937029;29;20455;-76
2022/09/14 12:02:26;;;;;;;11.27;2.25;;;;;;;;;;4934923;29;20078;-75
2022/09/14 12:05:04;;;;;;;16.20;2.47;;;;;;;;;;4935203;29;20023;-77
2022/09/14 12:07:41;;;;;;;11.48;2.63;;;;;;;;;;4919971;29;20056;-77
2022/09/14 12:10:16;;;;;;;12.75;2.50;;;;;;;;;;4926827;29;20028;-75
2022/09/14 12:12:43;;;;;;;15.38;2.80;;;;;;;;;;4943495;29;20054;-75
2022/09/14 12:15:14;;;;;;;12.57;2.75;;;;;;;;;;4944056;29;20042;-73
2022/09/14 12:17:40;;;;;;;17.38;2.63;;;;;;;;;;4927181;29;20039;-75
2022/09/14 12:20:39;;;;;;;14.32;2.80;;;;;;;;;;4942612;29;20189;-74
2022/09/14 12:23:20;;;;;;;9.23;2.10;;;;;;;;;;4954636;28;20044;-74
2022/09/14 12:26:01;;;;;;;15.52;3.17;;;;;;;;;;4941422;29;20039;-76
2022/09/14 12:28:36;;;;;;;18.08;2.70;;;;;;;;;;4939087;29;20038;-76
2022/09/14 12:31:02;;;;;;;11.23;2.22;;;;;;;;;;4938334;29;20035;-75
2022/09/14 12:33:34;;;;;;;16.83;2.47;;;;;;;;;;4936180;29;20152;-77
2022/09/14 12:36:01;;;;;;;15.15;3.38;;;;;;;;;;4935202;29;20040;-76
2022/09/14 12:38:26;;;;;;;16.63;3.47;;;;;;;;;;4935196;29;20423;-77
2022/09/14 12:40:52;;;;;;;10.77;2.25;;;;;;;;;;4935156;29;20106;-76
2022/09/14 12:43:33;;;;;;;13.15;2.25;;;;;;;;;;4933998;29;20032;-75
2022/09/14 12:46:04;;;;;;;10.00;2.40;;;;;;;;;;4935307;29;20572;-75
2022/09/14 12:48:46;;;;;;;20.27;3.05;;;;;;;;;;4935771;29;20056;-75
2022/09/14 12:51:20;;;;;;;14.63;3.08;;;;;;;;;;4935116;29;20568;-76
2022/09/14 12:53:51;;;;;;;31.30;11.10;;;;;;;;;;4935387;29;20082;-78
2022/09/14 12:56:37;;;;;;;23.83;10.85;;;;;;;;;;4935593;28;20038;-80
2022/09/14 12:59:10;;;;;;;41.40;19.42;;;;;;;;;;4934850;28;20034;-75
2022/09/14 13:01:39;;;;;;;18.10;4.00;;;;;;;;;;4917807;28;20349;-76
2022/09/14 13:04:12;;;;;;;13.95;2.50;;;;;;;;;;4934418;29;20101;-75
2022/09/14 13:06:43;;;;;;;13.07;3.60;;;;;;;;;;4934577;29;20020;-76
2022/09/14 13:09:15;;;;;;;20.40;2.95;;;;;;;;;;4918301;29;20469;-75
2022/09/14 13:11:42;;;;;;;12.35;2.40;;;;;;;;;;4917677;28;20020;-76
2022/09/14 13:14:15;;;;;;;12.95;2.40;;;;;;;;;;4923763;28;20377;-76
2022/09/14 13:16:43;;;;;;;11.57;1.98;;;;;;;;;;4924302;28;20039;-76
2022/09/14 13:19:41;;;;;;;9.65;2.08;;;;;;;;;;4944681;29;20109;-76
2022/09/14 13:22:21;;;;;;;11.98;2.70;;;;;;;;;;4930082;29;20042;-74
2022/09/14 13:24:48;;;;;;;14.02;2.67;;;;;;;;;;4945003;29;20115;-78
2022/09/14 13:27:41;;;;;;;12.32;2.35;;;;;;;;;;4930286;28;20024;-75
2022/09/14 13:30:18;;;;;;;11.95;1.95;;;;;;;;;;4929670;29;20047;-76
2022/09/14 13:32:46;;;;;;;15.45;2.20;;;;;;;;;;4945953;29;20039;-76
2022/09/14 13:35:21;;;;;;;11.27;1.92;;;;;;;;;;4922816;28;20050;-77
2022/09/14 13:37:48;;;;;;;19.08;2.50;;;;;;;;;;4925318;28;20073;-78
2022/09/14 13:40:14;;;;;;;10.85;2.00;;;;;;;;;;4935235;28;20081;-77
2022/09/14 13:42:40;;;;;;;14.45;2.20;;;;;;;;;;4938910;29;20040;-77
2022/09/14 13:45:07;;;;;;;11.98;2.13;;;;;;;;;;4934509;28;20055;-77
2022/09/14 13:47:33;;;;;;;20.75;3.53;;;;;;;;;;4933070;29;20030;-76
2022/09/14 13:49:59;;;;;;;12.82;2.63;;;;;;;;;;4934375;28;20032;-77
2022/09/14 13:52:26;;;;;;;11.38;2.20;;;;;;;;;;4934075;28;20040;-75
2022/09/14 13:54:53;;;;;;;11.98;2.70;;;;;;;;;;4934746;29;20082;-77
2022/09/14 13:57:21;;;;;;;12.75;2.38;;;;;;;;;;4917090;28;20032;-81
2022/09/14 14:00:07;;;;;;;13.70;2.05;;;;;;;;;;4990730;28;20556;-76
2022/09/14 14:02:34;;;;;;;13.23;3.00;;;;;;;;;;5014775;28;20033;-77
2022/09/14 14:05:00;;;;;;;14.23;4.20;;;;;;;;;;5013786;28;20021;-76
2022/09/14 14:07:31;;;;;;;14.65;4.20;;;;;;;;;;5003705;28;20049;-76
2022/09/14 14:09:58;;;;;;;9.52;2.25;;;;;;;;;;4934474;29;20028;-75
2022/09/14 14:12:26;;;;;;;9.98;3.25;;;;;;;;;;4916930;29;20023;-75
2022/09/14 14:14:55;;;;;;;12.63;3.13;;;;;;;;;;4934534;28;20078;-75
2022/09/14 14:17:23;;;;;;;10.02;1.65;;;;;;;;;;4934667;28;20087;-76
2022/09/14 14:19:50;;;;;;;8.93;1.75;;;;;;;;;;4939609;28;20087;-77
2022/09/14 14:22:32;;;;;;;9.60;1.85;;;;;;;;;;4923330;28;20057;-76
2022/09/14 14:24:59;;;;;;;10.80;2.50;;;;;;;;;;4932138;28;20034;-76
2022/09/14 14:27:27;;;;;;;8.23;1.92;;;;;;;;;;4955070;28;20135;-76
2022/09/14 14:29:53;;;;;;;13.52;2.40;;;;;;;;;;4956419;28;20016;-76
2022/09/14 14:32:20;;;;;;;7.65;2.38;;;;;;;;;;4937888;28;20054;-77
2022/09/14 14:34:46;;;;;;;7.07;1.70;;;;;;;;;;4954950;28;20028;-76
2022/09/14 14:37:12;;;;;;;10.98;2.00;;;;;;;;;;4930301;29;20031;-76
2022/09/14 14:39:38;;;;;;;7.63;1.67;;;;;;;;;;4926264;29;20028;-76
2022/09/14 14:42:06;;;;;;;7.43;1.52;;;;;;;;;;4939758;29;20027;-77
2022/09/14 14:44:32;;;;;;;7.07;1.77;;;;;;;;;;4936224;29;20111;-76